createdAt,value
2018-12-16T00:00:23.405Z,1017.56
2018-12-16T00:01:23.418Z,1017.53
2018-12-16T00:02:23.430Z,1017.5
2018-12-16T00:03:23.454Z,1017.57
2018-12-16T00:04:23.454Z,1017.56
2018-12-16T00:06:23.484Z,1017.52
2018-12-16T00:07:23.592Z,1017.54
2018-12-16T00:08:23.504Z,1017.55
2018-12-16T00:09:23.516Z,1017.5
2018-12-16T00:10:23.529Z,1017.53
2018-12-16T00:11:23.541Z,1017.46
2018-12-16T00:12:23.553Z,1017.43
2018-12-16T00:13:23.565Z,1017.46
2018-12-16T00:14:23.579Z,1017.47
2018-12-16T00:15:23.590Z,1017.45
2018-12-16T00:16:23.603Z,1017.46
2018-12-16T00:17:23.615Z,1017.39
2018-12-16T00:18:23.628Z,1017.41
2018-12-16T00:19:23.640Z,1017.36
2018-12-16T00:21:23.666Z,1017.35
2018-12-16T00:22:29.707Z,1017.33
2018-12-16T00:23:23.690Z,1017.34
2018-12-16T00:24:23.702Z,1017.32
2018-12-16T00:25:23.716Z,1017.34
2018-12-16T00:26:23.726Z,1017.33
2018-12-16T00:27:23.740Z,1017.39
2018-12-16T00:28:23.757Z,1017.35
2018-12-16T00:29:23.774Z,1017.44
2018-12-16T00:30:23.776Z,1017.37
2018-12-16T00:31:23.789Z,1017.39
2018-12-16T00:32:23.801Z,1017.41
2018-12-16T00:33:23.812Z,1017.34
2018-12-16T00:34:23.875Z,1017.31
2018-12-16T00:35:23.838Z,1017.31
2018-12-16T00:36:23.855Z,1017.33
2018-12-16T00:37:23.862Z,1017.25
2018-12-16T00:38:23.875Z,1017.25
2018-12-16T00:39:23.886Z,1017.25
2018-12-16T00:40:23.899Z,1017.21
2018-12-16T00:41:23.912Z,1017.2
2018-12-16T00:42:23.926Z,1017.21
2018-12-16T00:43:23.936Z,1017.18
2018-12-16T00:44:23.949Z,1017.18
2018-12-16T00:45:23.960Z,1017.16
2018-12-16T00:46:23.974Z,1017.2
2018-12-16T00:47:23.986Z,1017.19
2018-12-16T00:48:24.000Z,1017.14
2018-12-16T00:49:24.010Z,1017.14
2018-12-16T00:50:24.022Z,1017.11
2018-12-16T00:51:24.034Z,1017.08
2018-12-16T00:53:24.059Z,1017.06
2018-12-16T00:54:24.072Z,1017.02
2018-12-16T00:55:24.084Z,1017.06
2018-12-16T00:56:24.095Z,1017.03
2018-12-16T00:57:24.111Z,1017.02
2018-12-16T00:58:24.120Z,1017.02
2018-12-16T00:59:24.132Z,1017
2018-12-16T01:00:24.144Z,1017
2018-12-16T01:01:24.157Z,1016.96
2018-12-16T01:02:24.168Z,1017.02
2018-12-16T01:03:24.184Z,1017
2018-12-16T01:04:24.194Z,1016.98
2018-12-16T01:05:24.206Z,1016.98
2018-12-16T01:06:24.218Z,1016.94
2018-12-16T01:07:24.230Z,1016.9
2018-12-16T01:09:24.255Z,1016.86
2018-12-16T01:10:24.266Z,1016.86
2018-12-16T01:11:24.280Z,1016.82
2018-12-16T01:12:24.292Z,1016.83
2018-12-16T01:13:24.304Z,1016.87
2018-12-16T01:14:24.316Z,1016.85
2018-12-16T01:15:24.328Z,1016.83
2018-12-16T01:16:24.340Z,1016.87
2018-12-16T01:17:24.356Z,1016.81
2018-12-16T01:18:24.366Z,1016.82
2018-12-16T01:19:24.378Z,1016.8
2018-12-16T01:20:24.390Z,1016.78
2018-12-16T01:21:24.402Z,1016.76
2018-12-16T01:22:24.414Z,1016.73
2018-12-16T01:23:24.427Z,1016.74
2018-12-16T01:25:24.451Z,1016.69
2018-12-16T01:26:24.465Z,1016.7
2018-12-16T01:27:24.476Z,1016.75
2018-12-16T01:28:24.487Z,1016.69
2018-12-16T01:29:24.500Z,1016.66
2018-12-16T01:30:24.513Z,1016.62
2018-12-16T01:31:24.525Z,1016.66
2018-12-16T01:32:24.541Z,1016.65
2018-12-16T01:33:24.551Z,1016.6
2018-12-16T01:34:24.562Z,1016.57
2018-12-16T01:35:24.573Z,1016.59
2018-12-16T01:36:24.586Z,1016.58
2018-12-16T01:37:24.598Z,1016.59
2018-12-16T01:38:24.611Z,1016.55
2018-12-16T01:39:24.622Z,1016.54
2018-12-16T01:41:24.647Z,1016.49
2018-12-16T01:42:24.660Z,1016.5
2018-12-16T01:43:24.671Z,1016.48
2018-12-16T01:44:24.683Z,1016.48
2018-12-16T01:45:24.696Z,1016.47
2018-12-16T01:46:24.707Z,1016.41
2018-12-16T01:47:24.720Z,1016.45
2018-12-16T01:48:24.733Z,1016.41
2018-12-16T01:49:24.746Z,1016.4
2018-12-16T01:50:24.757Z,1016.35
2018-12-16T01:51:24.769Z,1016.33
2018-12-16T01:52:24.781Z,1016.32
2018-12-16T01:53:24.794Z,1016.31
2018-12-16T01:54:24.807Z,1016.32
2018-12-16T01:56:24.831Z,1016.24
2018-12-16T01:57:24.843Z,1016.25
2018-12-16T01:58:24.858Z,1016.26
2018-12-16T01:59:24.868Z,1016.23
2018-12-16T02:00:24.881Z,1016.21
2018-12-16T02:01:24.892Z,1016.19
2018-12-16T02:02:24.904Z,1016.14
2018-12-16T02:03:24.917Z,1016.15
2018-12-16T02:04:24.928Z,1016.13
2018-12-16T02:05:24.940Z,1016.12
2018-12-16T02:06:24.952Z,1016.13
2018-12-16T02:07:24.967Z,1016.1
2018-12-16T02:08:26.195Z,1016.1
2018-12-16T02:09:24.993Z,1016.07
2018-12-16T02:10:25.002Z,1016.02
2018-12-16T02:11:25.015Z,1015.96
2018-12-16T02:12:25.026Z,1015.97
2018-12-16T02:13:25.039Z,1015.94
2018-12-16T02:14:25.051Z,1015.95
2018-12-16T02:15:25.062Z,1015.95
2018-12-16T02:16:25.074Z,1015.94
2018-12-16T02:17:25.087Z,1015.94
2018-12-16T02:18:25.100Z,1015.95
2018-12-16T02:19:25.111Z,1015.93
2018-12-16T02:20:25.124Z,1015.94
2018-12-16T02:21:25.136Z,1015.95
2018-12-16T02:22:25.149Z,1015.94
2018-12-16T02:23:25.163Z,1015.94
2018-12-16T02:24:25.172Z,1015.93
2018-12-16T02:25:25.185Z,1015.89
2018-12-16T02:26:25.196Z,1015.87
2018-12-16T02:28:25.222Z,1015.87
2018-12-16T02:29:25.234Z,1015.82
2018-12-16T02:30:25.246Z,1015.77
2018-12-16T02:31:25.260Z,1015.81
2018-12-16T02:32:25.322Z,1015.78
2018-12-16T02:33:25.283Z,1015.79
2018-12-16T02:34:25.295Z,1015.77
2018-12-16T02:35:25.307Z,1015.83
2018-12-16T02:36:25.319Z,1015.75
2018-12-16T02:37:25.331Z,1015.76
2018-12-16T02:38:25.342Z,1015.68
2018-12-16T02:39:25.355Z,1015.72
2018-12-16T02:40:25.367Z,1015.67
2018-12-16T02:41:25.380Z,1015.67
2018-12-16T02:42:25.392Z,1015.64
2018-12-16T02:44:25.440Z,1015.64
2018-12-16T02:45:25.429Z,1015.63
2018-12-16T02:46:25.441Z,1015.66
2018-12-16T02:47:25.454Z,1015.65
2018-12-16T02:48:25.465Z,1015.64
2018-12-16T02:49:25.477Z,1015.63
2018-12-16T02:50:25.493Z,1015.68
2018-12-16T02:51:25.504Z,1015.61
2018-12-16T02:52:25.514Z,1015.67
2018-12-16T02:53:25.578Z,1015.65
2018-12-16T02:54:25.538Z,1015.64
2018-12-16T02:55:25.552Z,1015.61
2018-12-16T02:56:25.563Z,1015.61
2018-12-16T02:57:25.576Z,1015.64
2018-12-16T02:58:25.587Z,1015.64
2018-12-16T03:00:25.611Z,1015.66
2018-12-16T03:01:25.631Z,1015.6
2018-12-16T03:02:25.637Z,1015.59
2018-12-16T03:03:25.649Z,1015.6
2018-12-16T03:04:25.692Z,1015.57
2018-12-16T03:05:25.673Z,1015.56
2018-12-16T03:06:25.686Z,1015.55
2018-12-16T03:07:25.700Z,1015.56
2018-12-16T03:08:25.709Z,1015.55
2018-12-16T03:09:25.722Z,1015.53
2018-12-16T03:10:25.734Z,1015.46
2018-12-16T03:11:25.746Z,1015.44
2018-12-16T03:12:25.758Z,1015.41
2018-12-16T03:13:25.777Z,1015.38
2018-12-16T03:14:25.782Z,1015.4
2018-12-16T03:16:25.807Z,1015.4
2018-12-16T03:17:25.820Z,1015.36
2018-12-16T03:18:25.831Z,1015.38
2018-12-16T03:19:25.843Z,1015.38
2018-12-16T03:20:25.856Z,1015.34
2018-12-16T03:21:25.868Z,1015.33
2018-12-16T03:22:25.880Z,1015.29
2018-12-16T03:23:25.898Z,1015.26
2018-12-16T03:24:25.905Z,1015.25
2018-12-16T03:25:25.916Z,1015.24
2018-12-16T03:26:25.972Z,1015.21
2018-12-16T03:27:25.943Z,1015.24
2018-12-16T03:28:26.005Z,1015.22
2018-12-16T03:29:25.968Z,1015.23
2018-12-16T03:31:26.070Z,1015.19
2018-12-16T03:32:26.007Z,1015.23
2018-12-16T03:33:26.015Z,1015.24
2018-12-16T03:34:26.028Z,1015.19
2018-12-16T03:35:26.040Z,1015.18
2018-12-16T03:36:26.051Z,1015.2
2018-12-16T03:37:26.064Z,1015.17
2018-12-16T03:38:26.126Z,1015.16
2018-12-16T03:39:26.089Z,1015.13
2018-12-16T03:40:26.101Z,1015.13
2018-12-16T03:41:26.114Z,1015.1
2018-12-16T03:42:26.125Z,1015.1
2018-12-16T03:43:26.136Z,1015.07
2018-12-16T03:44:26.149Z,1015.02
2018-12-16T03:45:26.162Z,1015.02
2018-12-16T03:46:26.174Z,1015.05
2018-12-16T03:47:26.237Z,1015.02
2018-12-16T03:48:26.198Z,1015.01
2018-12-16T03:49:26.210Z,1015.05
2018-12-16T03:50:26.229Z,1015.01
2018-12-16T03:51:26.238Z,1015.02
2018-12-16T03:52:26.246Z,1015.08
2018-12-16T03:53:26.261Z,1015.03
2018-12-16T03:54:26.270Z,1015.04
2018-12-16T03:55:26.282Z,1015.02
2018-12-16T03:56:26.303Z,1015.01
2018-12-16T03:57:26.331Z,1015.06
2018-12-16T03:58:26.371Z,1015
2018-12-16T03:59:26.332Z,1015.01
2018-12-16T04:00:26.347Z,1014.99
2018-12-16T04:01:26.360Z,1014.99
2018-12-16T04:03:26.380Z,1014.98
2018-12-16T04:04:26.397Z,1014.98
2018-12-16T04:05:26.404Z,1015.02
2018-12-16T04:06:26.417Z,1014.99
2018-12-16T04:07:26.430Z,1014.94
2018-12-16T04:08:26.443Z,1014.95
2018-12-16T04:09:26.454Z,1014.93
2018-12-16T04:10:26.467Z,1014.91
2018-12-16T04:11:26.578Z,1014.91
2018-12-16T04:12:26.494Z,1014.93
2018-12-16T04:13:26.501Z,1014.82
2018-12-16T04:14:26.514Z,1014.84
2018-12-16T04:15:26.527Z,1014.85
2018-12-16T04:16:26.539Z,1014.83
2018-12-16T04:17:26.551Z,1014.85
2018-12-16T04:19:26.579Z,1014.79
2018-12-16T04:20:26.592Z,1014.79
2018-12-16T04:21:26.600Z,1014.76
2018-12-16T04:22:26.613Z,1014.77
2018-12-16T04:23:27.496Z,1014.73
2018-12-16T04:24:26.637Z,1014.73
2018-12-16T04:25:26.648Z,1014.7
2018-12-16T04:26:26.661Z,1014.7
2018-12-16T04:27:26.673Z,1014.64
2018-12-16T04:28:26.685Z,1014.68
2018-12-16T04:29:26.701Z,1014.67
2018-12-16T04:30:26.709Z,1014.59
2018-12-16T04:31:26.721Z,1014.58
2018-12-16T04:32:26.734Z,1014.5
2018-12-16T04:33:26.747Z,1014.46
2018-12-16T04:35:26.783Z,1014.44
2018-12-16T04:36:26.782Z,1014.49
2018-12-16T04:37:26.798Z,1014.41
2018-12-16T04:38:26.807Z,1014.41
2018-12-16T04:39:26.818Z,1014.42
2018-12-16T04:40:26.833Z,1014.35
2018-12-16T04:41:26.843Z,1014.35
2018-12-16T04:42:26.906Z,1014.32
2018-12-16T04:43:26.867Z,1014.34
2018-12-16T04:44:26.878Z,1014.31
2018-12-16T04:45:26.953Z,1014.32
2018-12-16T04:46:26.902Z,1014.29
2018-12-16T04:47:26.915Z,1014.24
2018-12-16T04:48:26.928Z,1014.24
2018-12-16T04:49:26.939Z,1014.25
2018-12-16T04:51:26.965Z,1014.27
2018-12-16T04:52:26.976Z,1014.24
2018-12-16T04:53:26.987Z,1014.18
2018-12-16T04:54:27.000Z,1014.17
2018-12-16T04:55:27.012Z,1014.16
2018-12-16T04:56:27.023Z,1014.16
2018-12-16T04:57:27.038Z,1014.19
2018-12-16T04:58:27.048Z,1014.15
2018-12-16T04:59:27.063Z,1014.12
2018-12-16T05:00:27.072Z,1014.12
2018-12-16T05:01:27.084Z,1014.15
2018-12-16T05:02:27.097Z,1014.11
2018-12-16T05:03:27.109Z,1014.13
2018-12-16T05:04:27.121Z,1014.13
2018-12-16T05:06:27.146Z,1014.1
2018-12-16T05:07:27.158Z,1014.14
2018-12-16T05:08:27.169Z,1014.13
2018-12-16T05:09:27.233Z,1014.12
2018-12-16T05:10:27.194Z,1014.16
2018-12-16T05:11:27.206Z,1014.13
2018-12-16T05:12:27.218Z,1014.12
2018-12-16T05:13:27.232Z,1014.08
2018-12-16T05:14:27.245Z,1014.06
2018-12-16T05:15:27.305Z,1014.04
2018-12-16T05:16:27.268Z,1014.02
2018-12-16T05:17:27.280Z,1014
2018-12-16T05:18:27.294Z,1014
2018-12-16T05:19:27.353Z,1014
2018-12-16T05:20:27.315Z,1013.97
2018-12-16T05:21:27.328Z,1013.94
2018-12-16T05:22:27.339Z,1013.93
2018-12-16T05:23:27.352Z,1013.94
2018-12-16T05:24:27.364Z,1013.87
2018-12-16T05:25:27.375Z,1013.89
2018-12-16T05:26:27.488Z,1013.82
2018-12-16T05:27:27.400Z,1013.8
2018-12-16T05:28:27.413Z,1013.72
2018-12-16T05:29:27.424Z,1013.72
2018-12-16T05:30:27.436Z,1013.7
2018-12-16T05:31:27.451Z,1013.72
2018-12-16T05:32:27.462Z,1013.69
2018-12-16T05:33:27.473Z,1013.69
2018-12-16T05:34:27.485Z,1013.67
2018-12-16T05:35:27.497Z,1013.7
2018-12-16T05:36:27.509Z,1013.63
2018-12-16T05:38:27.533Z,1013.63
2018-12-16T05:39:27.546Z,1013.63
2018-12-16T05:40:27.564Z,1013.62
2018-12-16T05:41:27.569Z,1013.61
2018-12-16T05:42:27.583Z,1013.61
2018-12-16T05:43:27.595Z,1013.6
2018-12-16T05:44:27.608Z,1013.57
2018-12-16T05:45:27.617Z,1013.51
2018-12-16T05:46:27.631Z,1013.54
2018-12-16T05:47:27.691Z,1013.46
2018-12-16T05:48:27.654Z,1013.55
2018-12-16T05:49:27.666Z,1013.4
2018-12-16T05:50:27.678Z,1013.42
2018-12-16T05:51:27.690Z,1013.37
2018-12-16T05:52:27.702Z,1013.4
2018-12-16T05:54:27.727Z,1013.38
2018-12-16T05:55:27.956Z,1013.41
2018-12-16T05:56:27.750Z,1013.38
2018-12-16T05:57:27.763Z,1013.37
2018-12-16T05:58:27.774Z,1013.4
2018-12-16T05:59:27.788Z,1013.32
2018-12-16T06:00:27.799Z,1013.34
2018-12-16T06:01:27.862Z,1013.33
2018-12-16T06:02:27.822Z,1013.34
2018-12-16T06:03:27.835Z,1013.37
2018-12-16T06:04:27.848Z,1013.34
2018-12-16T06:05:27.859Z,1013.34
2018-12-16T06:06:27.870Z,1013.43
2018-12-16T06:07:27.883Z,1013.39
2018-12-16T06:08:27.896Z,1013.36
2018-12-16T06:10:27.919Z,1013.38
2018-12-16T06:11:27.931Z,1013.4
2018-12-16T06:12:27.943Z,1013.35
2018-12-16T06:13:27.955Z,1013.32
2018-12-16T06:14:27.967Z,1013.26
2018-12-16T06:15:27.981Z,1013.26
2018-12-16T06:16:27.992Z,1013.22
2018-12-16T06:17:28.006Z,1013.3
2018-12-16T06:18:28.015Z,1013.27
2018-12-16T06:19:28.027Z,1013.29
2018-12-16T06:20:28.038Z,1013.23
2018-12-16T06:21:28.051Z,1013.25
2018-12-16T06:22:28.063Z,1013.24
2018-12-16T06:23:28.076Z,1013.18
2018-12-16T06:24:28.086Z,1013.19
2018-12-16T06:26:28.112Z,1013.16
2018-12-16T06:27:28.124Z,1013.17
2018-12-16T06:28:28.136Z,1013.15
2018-12-16T06:29:28.147Z,1013.12
2018-12-16T06:30:28.160Z,1013.09
2018-12-16T06:31:28.171Z,1013.06
2018-12-16T06:32:28.183Z,1013.04
2018-12-16T06:33:28.195Z,1013.1
2018-12-16T06:34:28.208Z,1013.11
2018-12-16T06:35:28.219Z,1013.05
2018-12-16T06:36:28.232Z,1013.1
2018-12-16T06:37:28.244Z,1013.06
2018-12-16T06:38:28.256Z,1013.08
2018-12-16T06:39:28.268Z,1013.1
2018-12-16T06:41:28.294Z,1013.11
2018-12-16T06:42:28.304Z,1013.11
2018-12-16T06:43:28.366Z,1013.1
2018-12-16T06:44:28.329Z,1013.06
2018-12-16T06:45:28.341Z,1013.09
2018-12-16T06:46:28.352Z,1013
2018-12-16T06:47:28.365Z,1013.04
2018-12-16T06:48:28.376Z,1013.04
2018-12-16T06:49:28.387Z,1013.01
2018-12-16T06:50:28.400Z,1013.02
2018-12-16T06:51:28.462Z,1012.99
2018-12-16T06:52:28.424Z,1012.93
2018-12-16T06:53:28.436Z,1012.93
2018-12-16T06:54:28.448Z,1012.94
2018-12-16T06:55:28.460Z,1012.89
2018-12-16T06:56:28.472Z,1012.88
2018-12-16T06:57:28.483Z,1012.81
2018-12-16T06:58:28.496Z,1012.81
2018-12-16T06:59:28.509Z,1012.81
2018-12-16T07:00:28.520Z,1012.78
2018-12-16T07:01:28.531Z,1012.76
2018-12-16T07:02:28.544Z,1012.72
2018-12-16T07:03:28.556Z,1012.68
2018-12-16T07:04:28.567Z,1012.71
2018-12-16T07:05:28.579Z,1012.69
2018-12-16T07:06:28.594Z,1012.65
2018-12-16T07:07:28.604Z,1012.68
2018-12-16T07:08:28.615Z,1012.63
2018-12-16T07:09:28.627Z,1012.64
2018-12-16T07:10:28.640Z,1012.65
2018-12-16T07:11:28.652Z,1012.59
2018-12-16T07:13:28.687Z,1012.61
2018-12-16T07:14:28.688Z,1012.6
2018-12-16T07:15:28.698Z,1012.65
2018-12-16T07:16:28.711Z,1012.68
2018-12-16T07:17:28.723Z,1012.67
2018-12-16T07:18:28.765Z,1012.73
2018-12-16T07:19:28.753Z,1012.7
2018-12-16T07:20:28.786Z,1012.77
2018-12-16T07:21:28.771Z,1012.82
2018-12-16T07:22:28.782Z,1012.89
2018-12-16T07:23:28.795Z,1012.91
2018-12-16T07:24:28.806Z,1012.98
2018-12-16T07:25:28.818Z,1012.98
2018-12-16T07:26:28.832Z,1013
2018-12-16T07:27:28.843Z,1013.06
2018-12-16T07:29:28.868Z,1013.04
2018-12-16T07:30:28.877Z,1013.09
2018-12-16T07:31:28.927Z,1013.1
2018-12-16T07:32:28.902Z,1013.06
2018-12-16T07:33:28.917Z,1013.08
2018-12-16T07:34:28.961Z,1013.05
2018-12-16T07:35:28.938Z,1013.02
2018-12-16T07:36:28.962Z,1013.02
2018-12-16T07:37:29.011Z,1013.01
2018-12-16T07:38:29.024Z,1013.03
2018-12-16T07:39:28.985Z,1012.98
2018-12-16T07:40:29.034Z,1012.98
2018-12-16T07:41:29.025Z,1012.95
2018-12-16T07:42:29.059Z,1012.99
2018-12-16T07:43:29.060Z,1013.01
2018-12-16T07:45:29.090Z,1012.95
2018-12-16T07:46:29.070Z,1012.93
2018-12-16T07:47:29.081Z,1012.95
2018-12-16T07:48:29.130Z,1012.93
2018-12-16T07:49:29.105Z,1012.98
2018-12-16T07:50:29.118Z,1013
2018-12-16T07:51:29.132Z,1013.01
2018-12-16T07:52:29.140Z,1012.98
2018-12-16T07:53:29.153Z,1012.98
2018-12-16T07:54:29.172Z,1013.02
2018-12-16T07:55:29.176Z,1013.02
2018-12-16T07:56:29.213Z,1012.94
2018-12-16T07:57:29.202Z,1012.93
2018-12-16T07:58:29.213Z,1012.89
2018-12-16T07:59:29.224Z,1012.94
2018-12-16T08:01:29.249Z,1012.87
2018-12-16T08:02:29.261Z,1012.9
2018-12-16T08:03:29.286Z,1012.86
2018-12-16T08:04:29.342Z,1012.89
2018-12-16T08:05:29.319Z,1012.9
2018-12-16T08:06:29.323Z,1012.85
2018-12-16T08:07:29.320Z,1012.81
2018-12-16T08:08:29.332Z,1012.78
2018-12-16T08:09:29.345Z,1012.78
2018-12-16T08:10:29.356Z,1012.75
2018-12-16T08:11:29.368Z,1012.72
2018-12-16T08:12:29.383Z,1012.75
2018-12-16T08:13:29.393Z,1012.74
2018-12-16T08:14:29.405Z,1012.72
2018-12-16T08:16:29.429Z,1012.69
2018-12-16T08:17:29.442Z,1012.68
2018-12-16T08:18:29.453Z,1012.66
2018-12-16T08:19:29.465Z,1012.65
2018-12-16T08:20:29.478Z,1012.74
2018-12-16T08:21:29.489Z,1012.73
2018-12-16T08:22:29.501Z,1012.7
2018-12-16T08:23:29.513Z,1012.7
2018-12-16T08:24:29.526Z,1012.68
2018-12-16T08:25:29.538Z,1012.66
2018-12-16T08:26:29.549Z,1012.66
2018-12-16T08:27:29.560Z,1012.66
2018-12-16T08:28:29.573Z,1012.62
2018-12-16T08:29:29.585Z,1012.63
2018-12-16T08:30:29.597Z,1012.59
2018-12-16T08:31:29.609Z,1012.58
2018-12-16T08:32:29.621Z,1012.55
2018-12-16T08:33:29.637Z,1012.59
2018-12-16T08:34:29.645Z,1012.59
2018-12-16T08:35:29.657Z,1012.56
2018-12-16T08:36:29.672Z,1012.61
2018-12-16T08:37:29.681Z,1012.64
2018-12-16T08:38:29.744Z,1012.64
2018-12-16T08:39:29.707Z,1012.62
2018-12-16T08:40:29.717Z,1012.62
2018-12-16T08:41:29.730Z,1012.66
2018-12-16T08:42:29.742Z,1012.6
2018-12-16T08:43:29.753Z,1012.67
2018-12-16T08:44:29.765Z,1012.65
2018-12-16T08:45:29.780Z,1012.64
2018-12-16T08:46:29.798Z,1012.66
2018-12-16T08:48:29.813Z,1012.65
2018-12-16T08:49:29.828Z,1012.73
2018-12-16T08:50:29.840Z,1012.69
2018-12-16T08:51:29.850Z,1012.65
2018-12-16T08:52:29.895Z,1012.65
2018-12-16T08:53:29.875Z,1012.65
2018-12-16T08:54:30.258Z,1012.67
2018-12-16T08:55:29.898Z,1012.65
2018-12-16T08:56:29.911Z,1012.68
2018-12-16T08:57:29.922Z,1012.7
2018-12-16T08:58:29.984Z,1012.69
2018-12-16T08:59:29.947Z,1012.69
2018-12-16T09:00:29.961Z,1012.7
2018-12-16T09:01:29.971Z,1012.7
2018-12-16T09:02:29.983Z,1012.67
2018-12-16T09:04:30.008Z,1012.67
2018-12-16T09:05:30.119Z,1012.68
2018-12-16T09:06:30.032Z,1012.61
2018-12-16T09:07:37.031Z,1012.63
2018-12-16T09:08:30.055Z,1012.57
2018-12-16T09:09:30.067Z,1012.56
2018-12-16T09:10:34.022Z,1012.57
2018-12-16T09:11:30.093Z,1012.58
2018-12-16T09:12:30.104Z,1012.56
2018-12-16T09:13:30.116Z,1012.52
2018-12-16T09:14:30.129Z,1012.56
2018-12-16T09:15:30.141Z,1012.54
2018-12-16T09:16:30.153Z,1012.54
2018-12-16T09:17:30.165Z,1012.45
2018-12-16T09:18:30.182Z,1012.47
2018-12-16T09:20:30.201Z,1012.42
2018-12-16T09:21:30.214Z,1012.43
2018-12-16T09:22:30.226Z,1012.42
2018-12-16T09:23:30.237Z,1012.39
2018-12-16T09:24:36.983Z,1012.33
2018-12-16T09:25:30.263Z,1012.33
2018-12-16T09:26:30.283Z,1012.29
2018-12-16T09:27:30.287Z,1012.26
2018-12-16T09:28:30.299Z,1012.25
2018-12-16T09:29:30.312Z,1012.28
2018-12-16T09:30:30.323Z,1012.2
2018-12-16T09:31:30.335Z,1012.16
2018-12-16T09:32:30.348Z,1012.13
2018-12-16T09:33:30.361Z,1012.16
2018-12-16T09:34:30.375Z,1012.17
2018-12-16T09:36:30.397Z,1012.17
2018-12-16T09:37:30.410Z,1012.12
2018-12-16T09:38:30.422Z,1012.11
2018-12-16T09:39:30.434Z,1012.1
2018-12-16T09:40:30.447Z,1012.09
2018-12-16T09:41:30.458Z,1012.12
2018-12-16T09:42:30.471Z,1012.08
2018-12-16T09:43:30.483Z,1012.04
2018-12-16T09:44:30.495Z,1012.02
2018-12-16T09:45:30.507Z,1012.04
2018-12-16T09:46:30.520Z,1012
2018-12-16T09:47:30.582Z,1011.97
2018-12-16T09:48:30.596Z,1011.98
2018-12-16T09:49:30.557Z,1011.92
2018-12-16T09:51:30.582Z,1011.9
2018-12-16T09:52:30.595Z,1011.88
2018-12-16T09:53:30.607Z,1011.78
2018-12-16T09:54:30.619Z,1011.83
2018-12-16T09:55:30.632Z,1011.84
2018-12-16T09:56:30.643Z,1011.84
2018-12-16T09:57:30.656Z,1011.8
2018-12-16T09:58:30.669Z,1011.81
2018-12-16T09:59:30.680Z,1011.8
2018-12-16T10:00:30.693Z,1011.73
2018-12-16T10:01:30.705Z,1011.67
2018-12-16T10:02:30.718Z,1011.69
2018-12-16T10:03:30.729Z,1011.67
2018-12-16T10:04:30.743Z,1011.63
2018-12-16T10:05:30.757Z,1011.62
2018-12-16T10:06:30.767Z,1011.63
2018-12-16T10:07:30.779Z,1011.62
2018-12-16T10:08:30.792Z,1011.63
2018-12-16T10:09:30.804Z,1011.61
2018-12-16T10:10:30.816Z,1011.61
2018-12-16T10:11:30.828Z,1011.61
2018-12-16T10:12:30.840Z,1011.59
2018-12-16T10:13:30.853Z,1011.57
2018-12-16T10:14:30.865Z,1011.56
2018-12-16T10:15:30.880Z,1011.58
2018-12-16T10:16:30.890Z,1011.52
2018-12-16T10:17:30.902Z,1011.56
2018-12-16T10:18:30.915Z,1011.54
2018-12-16T10:19:30.926Z,1011.54
2018-12-16T10:20:30.940Z,1011.51
2018-12-16T10:21:30.951Z,1011.55
2018-12-16T10:23:30.976Z,1011.56
2018-12-16T10:24:30.989Z,1011.55
2018-12-16T10:25:31.001Z,1011.53
2018-12-16T10:26:31.013Z,1011.52
2018-12-16T10:27:31.028Z,1011.57
2018-12-16T10:28:31.039Z,1011.55
2018-12-16T10:29:31.053Z,1011.48
2018-12-16T10:30:31.063Z,1011.55
2018-12-16T10:31:32.142Z,1011.5
2018-12-16T10:32:32.449Z,1011.46
2018-12-16T10:33:31.150Z,1011.43
2018-12-16T10:34:31.112Z,1011.43
2018-12-16T10:35:31.125Z,1011.44
2018-12-16T10:36:31.137Z,1011.47
2018-12-16T10:37:31.149Z,1011.47
2018-12-16T10:39:31.176Z,1011.39
2018-12-16T10:40:31.187Z,1011.39
2018-12-16T10:41:31.199Z,1011.37
2018-12-16T10:42:31.212Z,1011.33
2018-12-16T10:43:31.227Z,1011.37
2018-12-16T10:44:31.236Z,1011.27
2018-12-16T10:45:31.248Z,1011.31
2018-12-16T10:46:31.267Z,1011.28
2018-12-16T10:47:31.322Z,1011.24
2018-12-16T10:48:31.288Z,1011.24
2018-12-16T10:49:31.298Z,1011.25
2018-12-16T10:50:31.311Z,1011.15
2018-12-16T10:51:31.321Z,1011.21
2018-12-16T10:52:31.334Z,1011.2
2018-12-16T10:53:31.346Z,1011.24
2018-12-16T10:55:31.421Z,1011.17
2018-12-16T10:56:31.383Z,1011.2
2018-12-16T10:57:31.396Z,1011.14
2018-12-16T10:58:31.408Z,1011.17
2018-12-16T10:59:31.420Z,1011.1
2018-12-16T11:00:31.433Z,1011.06
2018-12-16T11:01:31.445Z,1011.1
2018-12-16T11:02:31.456Z,1011.07
2018-12-16T11:03:31.469Z,1011.04
2018-12-16T11:04:31.481Z,1011.02
2018-12-16T11:05:31.494Z,1011.03
2018-12-16T11:06:31.506Z,1011.01
2018-12-16T11:07:31.518Z,1010.97
2018-12-16T11:08:31.533Z,1010.95
2018-12-16T11:09:31.547Z,1010.92
2018-12-16T11:11:31.568Z,1010.96
2018-12-16T11:12:31.580Z,1010.92
2018-12-16T11:13:31.598Z,1010.91
2018-12-16T11:14:31.605Z,1010.89
2018-12-16T11:15:31.617Z,1010.87
2018-12-16T11:16:31.629Z,1010.85
2018-12-16T11:17:31.641Z,1010.85
2018-12-16T11:18:31.655Z,1010.8
2018-12-16T11:19:31.666Z,1010.85
2018-12-16T11:20:31.678Z,1010.85
2018-12-16T11:21:31.690Z,1010.84
2018-12-16T11:22:31.703Z,1010.82
2018-12-16T11:23:31.717Z,1010.84
2018-12-16T11:24:31.728Z,1010.81
2018-12-16T11:26:31.753Z,1010.77
2018-12-16T11:27:31.765Z,1010.79
2018-12-16T11:28:31.778Z,1010.71
2018-12-16T11:29:31.790Z,1010.74
2018-12-16T11:30:31.803Z,1010.76
2018-12-16T11:31:31.815Z,1010.71
2018-12-16T11:32:31.827Z,1010.7
2018-12-16T11:33:31.840Z,1010.68
2018-12-16T11:34:31.851Z,1010.66
2018-12-16T11:35:31.867Z,1010.66
2018-12-16T11:36:31.877Z,1010.62
2018-12-16T11:37:31.890Z,1010.62
2018-12-16T11:38:31.951Z,1010.62
2018-12-16T11:39:31.914Z,1010.6
2018-12-16T11:40:31.928Z,1010.62
2018-12-16T11:41:31.939Z,1010.61
2018-12-16T11:42:31.956Z,1010.58
2018-12-16T11:43:31.963Z,1010.58
2018-12-16T11:44:31.980Z,1010.54
2018-12-16T11:45:31.987Z,1010.53
2018-12-16T11:46:32.000Z,1010.52
2018-12-16T11:47:32.013Z,1010.52
2018-12-16T11:48:32.025Z,1010.49
2018-12-16T11:49:32.087Z,1010.51
2018-12-16T11:50:32.050Z,1010.46
2018-12-16T11:51:32.063Z,1010.49
2018-12-16T11:52:32.075Z,1010.49
2018-12-16T11:53:32.087Z,1010.47
2018-12-16T11:54:32.099Z,1010.4
2018-12-16T11:55:32.114Z,1010.37
2018-12-16T11:56:32.126Z,1010.43
2018-12-16T11:58:32.150Z,1010.45
2018-12-16T11:59:32.162Z,1010.39
2018-12-16T12:00:32.174Z,1010.41
2018-12-16T12:01:32.186Z,1010.37
2018-12-16T12:02:32.867Z,1010.39
2018-12-16T12:03:32.212Z,1010.32
2018-12-16T12:04:32.224Z,1010.26
2018-12-16T12:05:32.236Z,1010.22
2018-12-16T12:06:32.249Z,1010.2
2018-12-16T12:07:32.261Z,1010.23
2018-12-16T12:08:32.273Z,1010.22
2018-12-16T12:09:32.286Z,1010.24
2018-12-16T12:10:32.298Z,1010.24
2018-12-16T12:11:32.311Z,1010.23
2018-12-16T12:12:32.323Z,1010.2
2018-12-16T12:14:32.351Z,1010.14
2018-12-16T12:15:32.361Z,1010.09
2018-12-16T12:16:32.376Z,1010.08
2018-12-16T12:17:32.386Z,1010.03
2018-12-16T12:18:32.498Z,1009.99
2018-12-16T12:19:32.411Z,1009.99
2018-12-16T12:20:32.423Z,1009.97
2018-12-16T12:21:32.436Z,1009.94
2018-12-16T12:22:32.448Z,1009.93
2018-12-16T12:23:32.461Z,1009.94
2018-12-16T12:24:32.474Z,1009.98
2018-12-16T12:25:32.487Z,1009.9
2018-12-16T12:26:32.498Z,1009.89
2018-12-16T12:27:32.511Z,1009.86
2018-12-16T12:28:32.523Z,1009.77
2018-12-16T12:30:32.548Z,1009.8
2018-12-16T12:31:32.561Z,1009.74
2018-12-16T12:32:32.575Z,1009.77
2018-12-16T12:33:32.585Z,1009.71
2018-12-16T12:34:32.599Z,1009.69
2018-12-16T12:35:32.613Z,1009.76
2018-12-16T12:36:32.636Z,1009.75
2018-12-16T12:37:32.635Z,1009.71
2018-12-16T12:38:32.648Z,1009.71
2018-12-16T12:39:32.661Z,1009.78
2018-12-16T12:40:32.673Z,1009.77
2018-12-16T12:41:32.686Z,1009.81
2018-12-16T12:42:32.698Z,1009.76
2018-12-16T12:43:32.711Z,1009.8
2018-12-16T12:44:32.722Z,1009.76
2018-12-16T12:46:32.748Z,1009.72
2018-12-16T12:47:32.761Z,1009.72
2018-12-16T12:48:32.775Z,1009.74
2018-12-16T12:49:32.785Z,1009.68